Ursa Minor — ICGH — position and weather

sailwx.info

Track history (hours):
 
Tides and Currents Weather Stations Pressure Air Temp Water Temp Dewpoint Dewpoint Depression Visibility Wind Speed Wind Dir Waves Ship Positions

Ursa Minor

Last reported at 2017-May-29 20:58 UTC. Time now 2017-May-29 22:54 UTC.
Position N 40°04' E 014°23'.

Length 205 m; draft 8.3 m.

Type: Cargo ship. MMSI: 247082300.

Date/timePositionNaut miles runAvg speedWind from/ knotsBaromVisibWave heightAir tempDewpointWater temp
2017-May-29 20:58N 40°04' E 014°23'611.3
2017-May-29 20:28N 40°08' E 014°20'511.3
2017-May-29 20:00N 40°13' E 014°17'611.3
2017-May-29 19:31N 40°18' E 014°13'611.3
2017-May-29 19:01N 40°23' E 014°10'611.1
2017-May-29 18:30N 40°28' E 014°06'611.2
2017-May-29 17:57N 40°32' E 013°59'3811.5
2017-May-29 14:41N 40°55' E 013°21'311.5
2017-May-29 14:26N 40°57' E 013°18'1311.5
2017-May-29 13:18N 41°05' E 013°04'2011.1
2017-May-29 11:31N 41°17' E 012°43'111.3
2017-May-29 11:24N 41°18' E 012°42'513.1
2017-May-29 11:00N 41°21' E 012°36'5 9.7
2017-May-29 10:29N 41°24' E 012°31'14511.0
2017-May-28 21:21N 43°10' E 010°17'611.2
2017-May-28 20:49N 43°15' E 010°13'311.2
2017-May-28 20:30N 43°18' E 010°10'611.3
2017-May-28 19:59N 43°23' E 010°06'511.5
2017-May-28 19:31N 43°28' E 010°03'611.4
2017-May-28 19:01N 43°32' E 009°58'611.2
2017-May-28 18:31N 43°37' E 009°53'611.3
2017-May-28 18:01N 43°41' E 009°47'611.2
2017-May-28 17:31N 43°45' E 009°42'611.2
2017-May-28 17:01N 43°49' E 009°37'611.0
2017-May-28 16:31N 43°53' E 009°32'611.2
2017-May-28 16:00N 43°57' E 009°27'611.2
2017-May-28 15:31N 44°01' E 009°22'611.2
2017-May-28 15:01N 44°05' E 009°16'1111.3
2017-May-28 14:00N 44°13' E 009°05'611.2
2017-May-28 13:30N 44°17' E 008°59'511.1
2017-May-28 13:01N 44°21' E 008°54'3 6.3
2017-May-28 12:30N 44°24' E 008°52'0 0.0
2017-May-28 12:01N 44°24' E 008°52'0 0.0
2017-May-28 11:30N 44°24' E 008°52'0 0.0
2017-May-28 11:00N 44°24' E 008°52'0 0.0
2017-May-28 10:30N 44°24' E 008°52'0 0.0
2017-May-28 10:00N 44°24' E 008°52'0 0.0
2017-May-28 09:30N 44°24' E 008°52'0 0.0
2017-May-28 09:01N 44°24' E 008°52'0 0.0
2017-May-28 08:30N 44°24' E 008°52'0 0.0
2017-May-28 08:01N 44°24' E 008°52'0 0.0
2017-May-28 07:31N 44°24' E 008°52'0 0.1
2017-May-28 07:00N 44°24' E 008°52'0 0.4
2017-May-28 06:30N 44°24' E 008°52'2 3.6
2017-May-28 06:01N 44°23' E 008°55'4 7.5
2017-May-28 05:31N 44°21' E 008°59'4 8.1
2017-May-28 05:01N 44°18' E 009°02'611.0
2017-May-28 04:30N 44°13' E 009°07'511.0
2017-May-28 04:01N 44°09' E 009°12'611.0
2017-May-28 03:30N 44°05' E 009°17'611.2
2017-May-28 03:00N 44°01' E 009°22'611.2
2017-May-28 02:30N 43°57' E 009°28'611.1
2017-May-28 02:01N 43°53' E 009°33'611.2
2017-May-28 01:31N 43°49' E 009°38'611.4
2017-May-28 01:00N 43°44' E 009°43'611.5
2017-May-28 00:31N 43°40' E 009°48'611.2
2017-May-28 00:01N 43°36' E 009°53'611.3
2017-May-27 23:31N 43°32' E 009°59'611.2
2017-May-27 22:57N 43°27' E 010°04'511.3
2017-May-27 22:30N 43°22' E 010°07'611.1
2017-May-27 22:00N 43°17' E 010°10'611.1
2017-May-27 21:30N 43°12' E 010°14'611.2
2017-May-27 21:01N 43°07' E 010°18'611.3
2017-May-27 20:30N 43°03' E 010°22'611.2
2017-May-27 20:00N 42°58' E 010°26'510.7
2017-May-27 19:31N 42°53' E 010°29'510.5
2017-May-27 19:01N 42°49' E 010°33'910.6
2017-May-27 18:09N 42°42' E 010°41'210.9
2017-May-27 18:00N 42°41' E 010°42'510.7
2017-May-27 17:30N 42°36' E 010°47'510.4
2017-May-27 17:00N 42°32' E 010°51'510.5
2017-May-27 16:30N 42°28' E 010°55'510.7
2017-May-27 16:00N 42°24' E 011°01'8510.9
2017-May-27 08:09N 41°28' E 012°27'610.9
2017-May-27 07:35N 41°24' E 012°32'211.1
2017-May-27 07:26N 41°22' E 012°33'21710.9
2017-May-26 11:36N 38°33' E 015°31'210.9
2017-May-26 11:27N 38°32' E 015°32'510.8
2017-May-26 10:59N 38°28' E 015°35'510.4
2017-May-26 10:31N 38°24' E 015°39'510.2
2017-May-26 10:00N 38°19' E 015°42'4 7.8
2017-May-26 09:30N 38°15' E 015°40'3 6.2
2017-May-26 09:01N 38°14' E 015°37'510.8
2017-May-26 08:31N 38°08' E 015°36'510.7
2017-May-26 08:00N 38°03' E 015°36'510.8
2017-May-26 07:30N 37°58' E 015°38'611.3
2017-May-26 07:00N 37°54' E 015°43'611.0
2017-May-26 06:30N 37°53' E 015°50'710.9
2017-May-26 05:52N 37°52' E 015°59'15310.0
2017-May-25 14:33N 40°16' E 017°07'611.3
2017-May-25 14:00N 40°22' E 017°06'611.1
2017-May-25 13:29N 40°27' E 017°05'4 8.2
2017-May-25 13:00N 40°30' E 017°09'0 0.5
2017-May-25 12:27N 40°30' E 017°10'0 0.7
2017-May-25 12:00N 40°30' E 017°09'0 0.0
2017-May-25 11:27N 40°30' E 017°09'0 0.0
2017-May-25 11:00N 40°30' E 017°09'0 0.0
2017-May-25 10:30N 40°30' E 017°09'0 0.0
2017-May-25 09:54N 40°30' E 017°09'0 0.0
2017-May-25 09:27N 40°30' E 017°09'0 0.0
2017-May-25 08:57N 40°30' E 017°09'0 0.0
2017-May-25 08:27N 40°30' E 017°09'0 0.0
2017-May-25 08:00N 40°30' E 017°09'0 0.0
2017-May-25 07:30N 40°30' E 017°09'0 0.0
2017-May-25 06:55N 40°30' E 017°09'0 0.0
2017-May-25 06:28N 40°30' E 017°09'0 0.0
2017-May-25 05:58N 40°30' E 017°09'0 0.0
2017-May-25 05:27N 40°30' E 017°09'0 0.0
2017-May-25 04:57N 40°30' E 017°09'0 0.0
2017-May-25 04:27N 40°30' E 017°09'0 0.0
2017-May-25 03:54N 40°30' E 017°09'0 0.0
2017-May-25 03:30N 40°30' E 017°09'0 0.0
2017-May-25 02:57N 40°30' E 017°09'0 0.0
2017-May-25 02:24N 40°30' E 017°09'0 0.0
2017-May-25 02:00N 40°30' E 017°09'0 0.0
2017-May-25 01:27N 40°30' E 017°09'0 0.0
2017-May-25 00:54N 40°30' E 017°09'0 0.0
2017-May-25 00:30N 40°30' E 017°09'0 0.0
2017-May-25 00:00N 40°30' E 017°09'0 0.0
2017-May-24 23:27N 40°30' E 017°09'0 0.0
2017-May-24 22:54N 40°30' E 017°09'0 0.0
2017-May-24 22:27N 40°30' E 017°09'0 0.0
2017-May-24 21:57N 40°30' E 017°09'0 0.0
2017-May-24 21:27N 40°30' E 017°09'0 0.0
2017-May-24 20:57N 40°30' E 017°09'0 0.0
2017-May-24 20:27N 40°30' E 017°09'0 0.0
2017-May-24 19:57N 40°30' E 017°09'0 0.0
2017-May-24 19:20N 40°30' E 017°09'0 0.0
2017-May-24 18:56N 40°30' E 017°09'0 0.0
2017-May-24 18:26N 40°30' E 017°09'0 0.0
2017-May-24 17:59N 40°30' E 017°09'0 0.0
2017-May-24 17:29N 40°30' E 017°09'0 0.0
2017-May-24 16:59N 40°30' E 017°09'0 0.0
2017-May-24 16:26N 40°30' E 017°09'0 0.0
2017-May-24 15:59N 40°30' E 017°09'0 0.0
2017-May-24 15:26N 40°30' E 017°09'0 0.0
2017-May-24 14:59N 40°30' E 017°09'0 0.0
2017-May-24 14:29N 40°30' E 017°09'0 0.0
2017-May-24 13:14N 40°30' E 017°09'0 0.0
2017-May-24 12:53N 40°30' E 017°09'0 0.0
2017-May-24 12:17N 40°30' E 017°09'0 0.0
2017-May-24 11:53N 40°30' E 017°09'0 0.0
2017-May-24 11:29N 40°30' E 017°09'0 0.0
2017-May-24 10:59N 40°30' E 017°09'0 0.0
2017-May-24 10:26N 40°30' E 017°09'0 0.0
2017-May-24 09:56N 40°30' E 017°09'0 0.0
2017-May-24 09:29N 40°30' E 017°09'0 0.0
2017-May-24 08:59N 40°30' E 017°09'0 0.0
2017-May-24 08:29N 40°30' E 017°09'0 0.0
2017-May-24 07:59N 40°30' E 017°09'0 0.0
2017-May-24 07:29N 40°30' E 017°09'0 0.0
2017-May-24 06:53N 40°30' E 017°09'0 0.0
2017-May-24 06:29N 40°30' E 017°09'0 0.0
2017-May-24 05:59N 40°30' E 017°09'0 0.0
2017-May-24 05:29N 40°30' E 017°09'0 0.0
2017-May-24 04:59N 40°30' E 017°09'0 0.0
2017-May-24 04:26N 40°30' E 017°09'0 0.0
2017-May-24 03:56N 40°30' E 017°09'0 0.0
2017-May-24 03:26N 40°30' E 017°09'0 0.0
2017-May-24 02:56N 40°30' E 017°09'0 0.0
2017-May-24 02:26N 40°30' E 017°09'0 0.0
2017-May-24 01:56N 40°30' E 017°09'0 0.0
2017-May-24 01:29N 40°30' E 017°09'0 0.0
2017-May-24 00:59N 40°30' E 017°09'0 0.0
2017-May-24 00:29N 40°30' E 017°09'0 0.0
2017-May-23 23:47N 40°30' E 017°09'0 0.0
2017-May-23 23:29N 40°30' E 017°09'0 0.0
2017-May-23 22:56N 40°30' E 017°09'0 0.0
2017-May-23 22:26N 40°30' E 017°09'0 0.0
2017-May-23 21:56N 40°30' E 017°09'0 0.0
2017-May-23 21:23N 40°30' E 017°09'0 0.0
2017-May-23 20:59N 40°30' E 017°09'0 0.0
2017-May-23 20:23N 40°30' E 017°09'0 0.0
2017-May-23 19:59N 40°30' E 017°09'0 0.0
2017-May-23 19:29N 40°30' E 017°09'0 0.0
2017-May-23 18:59N 40°30' E 017°09'0 0.0
2017-May-23 18:29N 40°30' E 017°09'0 0.0
2017-May-23 17:59N 40°30' E 017°09'0 0.0
2017-May-23 17:26N 40°30' E 017°09'0 0.0
2017-May-23 16:56N 40°30' E 017°09'0 0.0
2017-May-23 16:29N 40°30' E 017°09'0 0.0
2017-May-23 15:53N 40°30' E 017°09'0 0.0
2017-May-23 15:28N 40°30' E 017°09'0 0.0
2017-May-23 14:56N 40°30' E 017°09'0 0.0
2017-May-23 13:56N 40°30' E 017°09'0 0.0
2017-May-23 13:22N 40°30' E 017°09'0 0.0
2017-May-23 12:56N 40°30' E 017°09'0 0.0
2017-May-23 12:28N 40°30' E 017°09'0 0.0
2017-May-23 11:58N 40°30' E 017°09'0 0.0
2017-May-23 11:28N 40°30' E 017°09'0 0.0
2017-May-23 10:56N 40°30' E 017°09'0 0.0
2017-May-23 10:25N 40°30' E 017°09'0 0.0
2017-May-23 09:52N 40°30' E 017°09'0 0.0
2017-May-23 09:28N 40°30' E 017°09'0 0.0
2017-May-23 08:58N 40°30' E 017°09'0 0.0
2017-May-23 08:22N 40°30' E 017°09'0 0.0
2017-May-23 07:55N 40°30' E 017°09'0 0.0
2017-May-23 07:25N 40°30' E 017°09'0 0.0
2017-May-23 07:00N 40°30' E 017°09'0 0.6
2017-May-23 06:31N 40°30' E 017°09'3 6.3
2017-May-23 05:59N 40°27' E 017°08'2 4.8
2017-May-23 05:30N 40°24' E 017°09'4 7.2
2017-May-23 05:00N 40°21' E 017°08'611.1
2017-May-23 04:27N 40°15' E 017°08'511.1
2017-May-23 03:59N 40°10' E 017°09'511.2
2017-May-23 03:30N 40°04' E 017°09'611.1
2017-May-23 03:00N 39°59' E 017°10'511.2
2017-May-23 02:30N 39°53' E 017°11'135 9.9
2017-May-22 12:49N 37°53' E 015°52'310.6
2017-May-22 12:30N 37°53' E 015°48'510.0
2017-May-22 12:00N 37°55' E 015°42'510.4
2017-May-22 11:30N 37°58' E 015°37'612.2
2017-May-22 11:00N 38°04' E 015°35'713.3
2017-May-22 10:30N 38°11' E 015°36'611.2
2017-May-22 10:00N 38°16' E 015°40'510.9
2017-May-22 09:31N 38°21' E 015°38'511.0
2017-May-22 09:01N 38°26' E 015°36'611.1
2017-May-22 08:30N 38°31' E 015°32'611.1
2017-May-22 08:00N 38°35' E 015°28'611.2
2017-May-22 07:29N 38°40' E 015°24'511.2
2017-May-22 07:00N 38°45' E 015°20'611.1
2017-May-22 06:30N 38°50' E 015°17'610.8
2017-May-22 05:58N 38°55' E 015°14'35310.9
2017-May-20 21:28N 43°22' E 010°08'511.0
2017-May-20 20:59N 43°27' E 010°04'511.3
2017-May-20 20:31N 43°31' E 009°60'611.6
2017-May-20 20:01N 43°35' E 009°55'611.5
2017-May-20 19:31N 43°40' E 009°50'611.5
2017-May-20 19:01N 43°44' E 009°44'611.5
2017-May-20 18:31N 43°49' E 009°39'5 9.8
2017-May-20 18:01N 43°52' E 009°35'4 7.0
2017-May-20 17:31N 43°55' E 009°31'4 7.0
2017-May-20 17:01N 43°57' E 009°28'3 7.0
2017-May-20 16:31N 43°60' E 009°25'3 7.0
2017-May-20 16:01N 44°02' E 009°21'3 6.7
2017-May-20 15:31N 44°05' E 009°18'4 7.8
2017-May-20 15:01N 44°07' E 009°14'510.7
2017-May-20 14:30N 44°11' E 009°09'1110.7
2017-May-20 13:31N 44°19' E 008°59'510.4
2017-May-20 13:00N 44°23' E 008°54'2 3.6
2017-May-20 12:31N 44°24' E 008°52'0 0.0
2017-May-20 12:01N 44°24' E 008°52'0 0.0
2017-May-20 11:30N 44°24' E 008°52'0 0.0
2017-May-20 10:58N 44°24' E 008°52'0 0.0
2017-May-20 10:28N 44°24' E 008°52'0 0.0
2017-May-20 09:58N 44°24' E 008°52'0 0.0
2017-May-20 09:28N 44°24' E 008°52'0 0.0
2017-May-20 08:58N 44°24' E 008°52'0 0.0
2017-May-20 08:19N 44°24' E 008°52'0 0.0
2017-May-20 07:58N 44°24' E 008°52'0 0.0
2017-May-20 07:30N 44°24' E 008°52'0 0.4
2017-May-20 07:00N 44°24' E 008°52'0 0.2
2017-May-20 06:30N 44°24' E 008°52'1 2.8
2017-May-20 06:00N 44°24' E 008°54'4 7.0
2017-May-20 05:30N 44°21' E 008°58'3 5.5
2017-May-20 05:00N 44°19' E 009°00'510.3
2017-May-20 04:30N 44°15' E 009°04'611.3
2017-May-20 04:00N 44°11' E 009°09'511.1
2017-May-20 03:30N 44°07' E 009°15'510.9
2017-May-20 03:00N 44°03' E 009°20'510.7
2017-May-20 02:30N 43°59' E 009°25'510.5
2017-May-20 02:00N 43°55' E 009°30'510.5
2017-May-20 01:30N 43°51' E 009°35'510.3
2017-May-20 01:00N 43°48' E 009°40'510.1
2017-May-20 00:30N 43°44' E 009°44'510.2
2017-May-20 00:00N 43°40' E 009°49'510.2
2017-May-19 23:30N 43°36' E 009°54'510.1
2017-May-19 23:00N 43°32' E 009°58'510.2
2017-May-19 22:30N 43°28' E 010°02'510.7
2017-May-19 22:00N 43°23' E 010°06'510.8
2017-May-19 21:30N 43°19' E 010°10'611.0
2017-May-19 21:00N 43°14' E 010°13'  
Track history (hours):
 
Tides and Currents Weather Stations Pressure Air Temp Water Temp Dewpoint Dewpoint Depression Visibility Wind Speed Wind Dir Waves Ship Positions

Ursa Minor

Last reported at 2017-May-29 20:58 UTC. Time now 2017-May-29 22:54 UTC.
Position N 40°04' E 014°23'.

Length 205 m; draft 8.3 m.

Type: Cargo ship. MMSI: 247082300.

Date/timePositionNaut miles runAvg speedWind from/ knotsBaromVisibWave heightAir tempDewpointWater temp
2017-May-29 20:58N 40°04' E 014°23'611.3
2017-May-29 20:28N 40°08' E 014°20'511.3
2017-May-29 20:00N 40°13' E 014°17'611.3
2017-May-29 19:31N 40°18' E 014°13'611.3
2017-May-29 19:01N 40°23' E 014°10'611.1
2017-May-29 18:30N 40°28' E 014°06'611.2
2017-May-29 17:57N 40°32' E 013°59'3811.5
2017-May-29 14:41N 40°55' E 013°21'311.5
2017-May-29 14:26N 40°57' E 013°18'1311.5
2017-May-29 13:18N 41°05' E 013°04'2011.1
2017-May-29 11:31N 41°17' E 012°43'111.3
2017-May-29 11:24N 41°18' E 012°42'513.1
2017-May-29 11:00N 41°21' E 012°36'5 9.7
2017-May-29 10:29N 41°24' E 012°31'14511.0
2017-May-28 21:21N 43°10' E 010°17'611.2
2017-May-28 20:49N 43°15' E 010°13'311.2
2017-May-28 20:30N 43°18' E 010°10'611.3
2017-May-28 19:59N 43°23' E 010°06'511.5
2017-May-28 19:31N 43°28' E 010°03'611.4
2017-May-28 19:01N 43°32' E 009°58'611.2
2017-May-28 18:31N 43°37' E 009°53'611.3
2017-May-28 18:01N 43°41' E 009°47'611.2
2017-May-28 17:31N 43°45' E 009°42'611.2
2017-May-28 17:01N 43°49' E 009°37'611.0
2017-May-28 16:31N 43°53' E 009°32'611.2
2017-May-28 16:00N 43°57' E 009°27'611.2
2017-May-28 15:31N 44°01' E 009°22'611.2
2017-May-28 15:01N 44°05' E 009°16'1111.3
2017-May-28 14:00N 44°13' E 009°05'611.2
2017-May-28 13:30N 44°17' E 008°59'511.1
2017-May-28 13:01N 44°21' E 008°54'3 6.3
2017-May-28 12:30N 44°24' E 008°52'0 0.0
2017-May-28 12:01N 44°24' E 008°52'0 0.0
2017-May-28 11:30N 44°24' E 008°52'0 0.0
2017-May-28 11:00N 44°24' E 008°52'0 0.0
2017-May-28 10:30N 44°24' E 008°52'0 0.0
2017-May-28 10:00N 44°24' E 008°52'0 0.0
2017-May-28 09:30N 44°24' E 008°52'0 0.0
2017-May-28 09:01N 44°24' E 008°52'0 0.0
2017-May-28 08:30N 44°24' E 008°52'0 0.0
2017-May-28 08:01N 44°24' E 008°52'0 0.0
2017-May-28 07:31N 44°24' E 008°52'0 0.1
2017-May-28 07:00N 44°24' E 008°52'0 0.4
2017-May-28 06:30N 44°24' E 008°52'2 3.6
2017-May-28 06:01N 44°23' E 008°55'4 7.5
2017-May-28 05:31N 44°21' E 008°59'4 8.1
2017-May-28 05:01N 44°18' E 009°02'611.0
2017-May-28 04:30N 44°13' E 009°07'511.0
2017-May-28 04:01N 44°09' E 009°12'611.0
2017-May-28 03:30N 44°05' E 009°17'611.2
2017-May-28 03:00N 44°01' E 009°22'611.2
2017-May-28 02:30N 43°57' E 009°28'611.1
2017-May-28 02:01N 43°53' E 009°33'611.2
2017-May-28 01:31N 43°49' E 009°38'611.4
2017-May-28 01:00N 43°44' E 009°43'611.5
2017-May-28 00:31N 43°40' E 009°48'611.2
2017-May-28 00:01N 43°36' E 009°53'611.3
2017-May-27 23:31N 43°32' E 009°59'611.2
2017-May-27 22:57N 43°27' E 010°04'511.3
2017-May-27 22:30N 43°22' E 010°07'611.1
2017-May-27 22:00N 43°17' E 010°10'611.1
2017-May-27 21:30N 43°12' E 010°14'611.2
2017-May-27 21:01N 43°07' E 010°18'611.3
2017-May-27 20:30N 43°03' E 010°22'611.2
2017-May-27 20:00N 42°58' E 010°26'510.7
2017-May-27 19:31N 42°53' E 010°29'510.5
2017-May-27 19:01N 42°49' E 010°33'910.6
2017-May-27 18:09N 42°42' E 010°41'210.9
2017-May-27 18:00N 42°41' E 010°42'510.7
2017-May-27 17:30N 42°36' E 010°47'510.4
2017-May-27 17:00N 42°32' E 010°51'510.5
2017-May-27 16:30N 42°28' E 010°55'510.7
2017-May-27 16:00N 42°24' E 011°01'8510.9
2017-May-27 08:09N 41°28' E 012°27'610.9
2017-May-27 07:35N 41°24' E 012°32'211.1
2017-May-27 07:26N 41°22' E 012°33'21710.9
2017-May-26 11:36N 38°33' E 015°31'210.9
2017-May-26 11:27N 38°32' E 015°32'510.8
2017-May-26 10:59N 38°28' E 015°35'510.4
2017-May-26 10:31N 38°24' E 015°39'510.2
2017-May-26 10:00N 38°19' E 015°42'4 7.8
2017-May-26 09:30N 38°15' E 015°40'3 6.2
2017-May-26 09:01N 38°14' E 015°37'510.8
2017-May-26 08:31N 38°08' E 015°36'510.7
2017-May-26 08:00N 38°03' E 015°36'510.8
2017-May-26 07:30N 37°58' E 015°38'611.3
2017-May-26 07:00N 37°54' E 015°43'611.0
2017-May-26 06:30N 37°53' E 015°50'710.9
2017-May-26 05:52N 37°52' E 015°59'15310.0
2017-May-25 14:33N 40°16' E 017°07'611.3
2017-May-25 14:00N 40°22' E 017°06'611.1
2017-May-25 13:29N 40°27' E 017°05'4 8.2
2017-May-25 13:00N 40°30' E 017°09'0 0.5
2017-May-25 12:27N 40°30' E 017°10'0 0.7
2017-May-25 12:00N 40°30' E 017°09'0 0.0
2017-May-25 11:27N 40°30' E 017°09'0 0.0
2017-May-25 11:00N 40°30' E 017°09'0 0.0
2017-May-25 10:30N 40°30' E 017°09'0 0.0
2017-May-25 09:54N 40°30' E 017°09'0 0.0
2017-May-25 09:27N 40°30' E 017°09'0 0.0
2017-May-25 08:57N 40°30' E 017°09'0 0.0
2017-May-25 08:27N 40°30' E 017°09'0 0.0
2017-May-25 08:00N 40°30' E 017°09'0 0.0
2017-May-25 07:30N 40°30' E 017°09'0 0.0
2017-May-25 06:55N 40°30' E 017°09'0 0.0
2017-May-25 06:28N 40°30' E 017°09'0 0.0
2017-May-25 05:58N 40°30' E 017°09'0 0.0
2017-May-25 05:27N 40°30' E 017°09'0 0.0
2017-May-25 04:57N 40°30' E 017°09'0 0.0
2017-May-25 04:27N 40°30' E 017°09'0 0.0
2017-May-25 03:54N 40°30' E 017°09'0 0.0
2017-May-25 03:30N 40°30' E 017°09'0 0.0
2017-May-25 02:57N 40°30' E 017°09'0 0.0
2017-May-25 02:24N 40°30' E 017°09'0 0.0
2017-May-25 02:00N 40°30' E 017°09'0 0.0
2017-May-25 01:27N 40°30' E 017°09'0 0.0
2017-May-25 00:54N 40°30' E 017°09'0 0.0
2017-May-25 00:30N 40°30' E 017°09'0 0.0
2017-May-25 00:00N 40°30' E 017°09'0 0.0
2017-May-24 23:27N 40°30' E 017°09'0 0.0
2017-May-24 22:54N 40°30' E 017°09'0 0.0
2017-May-24 22:27N 40°30' E 017°09'0 0.0
2017-May-24 21:57N 40°30' E 017°09'0 0.0
2017-May-24 21:27N 40°30' E 017°09'0 0.0
2017-May-24 20:57N 40°30' E 017°09'0 0.0
2017-May-24 20:27N 40°30' E 017°09'0 0.0
2017-May-24 19:57N 40°30' E 017°09'0 0.0
2017-May-24 19:20N 40°30' E 017°09'0 0.0
2017-May-24 18:56N 40°30' E 017°09'0 0.0
2017-May-24 18:26N 40°30' E 017°09'0 0.0
2017-May-24 17:59N 40°30' E 017°09'0 0.0
2017-May-24 17:29N 40°30' E 017°09'0 0.0
2017-May-24 16:59N 40°30' E 017°09'0 0.0
2017-May-24 16:26N 40°30' E 017°09'0 0.0
2017-May-24 15:59N 40°30' E 017°09'0 0.0
2017-May-24 15:26N 40°30' E 017°09'0 0.0
2017-May-24 14:59N 40°30' E 017°09'0 0.0
2017-May-24 14:29N 40°30' E 017°09'0 0.0
2017-May-24 13:14N 40°30' E 017°09'0 0.0
2017-May-24 12:53N 40°30' E 017°09'0 0.0
2017-May-24 12:17N 40°30' E 017°09'0 0.0
2017-May-24 11:53N 40°30' E 017°09'0 0.0
2017-May-24 11:29N 40°30' E 017°09'0 0.0
2017-May-24 10:59N 40°30' E 017°09'0 0.0
2017-May-24 10:26N 40°30' E 017°09'0 0.0
2017-May-24 09:56N 40°30' E 017°09'0 0.0
2017-May-24 09:29N 40°30' E 017°09'0 0.0
2017-May-24 08:59N 40°30' E 017°09'0 0.0
2017-May-24 08:29N 40°30' E 017°09'0 0.0
2017-May-24 07:59N 40°30' E 017°09'0 0.0
2017-May-24 07:29N 40°30' E 017°09'0 0.0
2017-May-24 06:53N 40°30' E 017°09'0 0.0
2017-May-24 06:29N 40°30' E 017°09'0 0.0
2017-May-24 05:59N 40°30' E 017°09'0 0.0
2017-May-24 05:29N 40°30' E 017°09'0 0.0
2017-May-24 04:59N 40°30' E 017°09'0 0.0
2017-May-24 04:26N 40°30' E 017°09'0 0.0
2017-May-24 03:56N 40°30' E 017°09'0 0.0
2017-May-24 03:26N 40°30' E 017°09'0 0.0
2017-May-24 02:56N 40°30' E 017°09'0 0.0
2017-May-24 02:26N 40°30' E 017°09'0 0.0
2017-May-24 01:56N 40°30' E 017°09'0 0.0
2017-May-24 01:29N 40°30' E 017°09'0 0.0
2017-May-24 00:59N 40°30' E 017°09'0 0.0
2017-May-24 00:29N 40°30' E 017°09'0 0.0
2017-May-23 23:47N 40°30' E 017°09'0 0.0
2017-May-23 23:29N 40°30' E 017°09'0 0.0
2017-May-23 22:56N 40°30' E 017°09'0 0.0
2017-May-23 22:26N 40°30' E 017°09'0 0.0
2017-May-23 21:56N 40°30' E 017°09'0 0.0
2017-May-23 21:23N 40°30' E 017°09'0 0.0
2017-May-23 20:59N 40°30' E 017°09'0 0.0
2017-May-23 20:23N 40°30' E 017°09'0 0.0
2017-May-23 19:59N 40°30' E 017°09'0 0.0
2017-May-23 19:29N 40°30' E 017°09'0 0.0
2017-May-23 18:59N 40°30' E 017°09'0 0.0
2017-May-23 18:29N 40°30' E 017°09'0 0.0
2017-May-23 17:59N 40°30' E 017°09'0 0.0
2017-May-23 17:26N 40°30' E 017°09'0 0.0
2017-May-23 16:56N 40°30' E 017°09'0 0.0
2017-May-23 16:29N 40°30' E 017°09'0 0.0
2017-May-23 15:53N 40°30' E 017°09'0 0.0
2017-May-23 15:28N 40°30' E 017°09'0 0.0
2017-May-23 14:56N 40°30' E 017°09'0 0.0
2017-May-23 13:56N 40°30' E 017°09'0 0.0
2017-May-23 13:22N 40°30' E 017°09'0 0.0
2017-May-23 12:56N 40°30' E 017°09'0 0.0
2017-May-23 12:28N 40°30' E 017°09'0 0.0
2017-May-23 11:58N 40°30' E 017°09'0 0.0
2017-May-23 11:28N 40°30' E 017°09'0 0.0
2017-May-23 10:56N 40°30' E 017°09'0 0.0
2017-May-23 10:25N 40°30' E 017°09'0 0.0
2017-May-23 09:52N 40°30' E 017°09'0 0.0
2017-May-23 09:28N 40°30' E 017°09'0 0.0
2017-May-23 08:58N 40°30' E 017°09'0 0.0
2017-May-23 08:22N 40°30' E 017°09'0 0.0
2017-May-23 07:55N 40°30' E 017°09'0 0.0
2017-May-23 07:25N 40°30' E 017°09'0 0.0
2017-May-23 07:00N 40°30' E 017°09'0 0.6
2017-May-23 06:31N 40°30' E 017°09'3 6.3
2017-May-23 05:59N 40°27' E 017°08'2 4.8
2017-May-23 05:30N 40°24' E 017°09'4 7.2
2017-May-23 05:00N 40°21' E 017°08'611.1
2017-May-23 04:27N 40°15' E 017°08'511.1
2017-May-23 03:59N 40°10' E 017°09'511.2
2017-May-23 03:30N 40°04' E 017°09'611.1
2017-May-23 03:00N 39°59' E 017°10'511.2
2017-May-23 02:30N 39°53' E 017°11'135 9.9
2017-May-22 12:49N 37°53' E 015°52'310.6
2017-May-22 12:30N 37°53' E 015°48'510.0
2017-May-22 12:00N 37°55' E 015°42'510.4
2017-May-22 11:30N 37°58' E 015°37'612.2
2017-May-22 11:00N 38°04' E 015°35'713.3
2017-May-22 10:30N 38°11' E 015°36'611.2
2017-May-22 10:00N 38°16' E 015°40'510.9
2017-May-22 09:31N 38°21' E 015°38'511.0
2017-May-22 09:01N 38°26' E 015°36'611.1
2017-May-22 08:30N 38°31' E 015°32'611.1
2017-May-22 08:00N 38°35' E 015°28'611.2
2017-May-22 07:29N 38°40' E 015°24'511.2
2017-May-22 07:00N 38°45' E 015°20'611.1
2017-May-22 06:30N 38°50' E 015°17'610.8
2017-May-22 05:58N 38°55' E 015°14'35310.9
2017-May-20 21:28N 43°22' E 010°08'511.0
2017-May-20 20:59N 43°27' E 010°04'511.3
2017-May-20 20:31N 43°31' E 009°60'611.6
2017-May-20 20:01N 43°35' E 009°55'611.5
2017-May-20 19:31N 43°40' E 009°50'611.5
2017-May-20 19:01N 43°44' E 009°44'611.5
2017-May-20 18:31N 43°49' E 009°39'5 9.8
2017-May-20 18:01N 43°52' E 009°35'4 7.0
2017-May-20 17:31N 43°55' E 009°31'4 7.0
2017-May-20 17:01N 43°57' E 009°28'3 7.0
2017-May-20 16:31N 43°60' E 009°25'3 7.0
2017-May-20 16:01N 44°02' E 009°21'3 6.7
2017-May-20 15:31N 44°05' E 009°18'4 7.8
2017-May-20 15:01N 44°07' E 009°14'510.7
2017-May-20 14:30N 44°11' E 009°09'1110.7
2017-May-20 13:31N 44°19' E 008°59'510.4
2017-May-20 13:00N 44°23' E 008°54'2 3.6
2017-May-20 12:31N 44°24' E 008°52'0 0.0
2017-May-20 12:01N 44°24' E 008°52'0 0.0
2017-May-20 11:30N 44°24' E 008°52'0 0.0
2017-May-20 10:58N 44°24' E 008°52'0 0.0
2017-May-20 10:28N 44°24' E 008°52'0 0.0
2017-May-20 09:58N 44°24' E 008°52'0 0.0
2017-May-20 09:28N 44°24' E 008°52'0 0.0
2017-May-20 08:58N 44°24' E 008°52'0 0.0
2017-May-20 08:19N 44°24' E 008°52'0 0.0
2017-May-20 07:58N 44°24' E 008°52'0 0.0
2017-May-20 07:30N 44°24' E 008°52'0 0.4
2017-May-20 07:00N 44°24' E 008°52'0 0.2
2017-May-20 06:30N 44°24' E 008°52'1 2.8
2017-May-20 06:00N 44°24' E 008°54'4 7.0
2017-May-20 05:30N 44°21' E 008°58'3 5.5
2017-May-20 05:00N 44°19' E 009°00'510.3
2017-May-20 04:30N 44°15' E 009°04'611.3
2017-May-20 04:00N 44°11' E 009°09'511.1
2017-May-20 03:30N 44°07' E 009°15'510.9
2017-May-20 03:00N 44°03' E 009°20'510.7
2017-May-20 02:30N 43°59' E 009°25'510.5
2017-May-20 02:00N 43°55' E 009°30'510.5
2017-May-20 01:30N 43°51' E 009°35'510.3
2017-May-20 01:00N 43°48' E 009°40'510.1
2017-May-20 00:30N 43°44' E 009°44'510.2
2017-May-20 00:00N 43°40' E 009°49'510.2
2017-May-19 23:30N 43°36' E 009°54'510.1
2017-May-19 23:00N 43°32' E 009°58'510.2
2017-May-19 22:30N 43°28' E 010°02'510.7
2017-May-19 22:00N 43°23' E 010°06'510.8
2017-May-19 21:30N 43°19' E 010°10'611.0
2017-May-19 21:00N 43°14' E 010°13'  

Dump ship's entire track history